METAR Data
IDs: Format: Raw Decoded Include TAF

Data at: 0812 UTC 18 Nov 2018

PAMH 180756Z AUTO 00000KT 10SM OVC100 M12/M15 A2957 RMK AO2 SLP772 T11221150 FZRANO
PAMH 180656Z AUTO 15003KT 10SM SCT065 BKN080 OVC095 M12/M14 A2957 RMK AO2 SLP771 T11171144 FZRANO
PAMH 180556Z AUTO 21003KT 10SM OVC100 M12/M14 A2957 RMK AO2 SLP771 T11221144 11117 21139 58006 FZRANO
PAMH 180456Z AUTO 00000KT 10SM OVC100 M12/M15 A2958 RMK AO2 SLP775 T11221150 FZRANO
PAMH 180356Z AUTO 00000KT 10SM OVC110 M12/M14 A2958 RMK AO2 SLP775 T11221144 FZRANO
PAMH 180256Z AUTO 00000KT 10SM OVC120 M12/M14 A2959 RMK AO2 SLP777 T11221144 58011 FZRANO
PAMH 180156Z AUTO 00000KT 10SM OVC120 M13/M16 A2960 RMK AO2 SLP782 T11281156 FZRANO
PAMH 180056Z AUTO 00000KT 10SM BKN120 M13/M16 A2962 RMK AO2 SLP787 T11331161 FZRANO
PAMH 172356Z AUTO 00000KT 10SM FEW120 M14/M16 A2962 RMK AO2 SLP788 T11391161 11139 21178 56009 FZRANO
PAMH 172256Z AUTO 00000KT 10SM OVC120 M15/M17 A2963 RMK AO2 SLP791 T11501172 FZRANO
PAMH 172156Z AUTO 00000KT 10SM CLR M15/M17 A2963 RMK AO2 SLP792 T11501172 FZRANO
PAMH 172056Z AUTO 00000KT 10SM CLR M16/M18 A2965 RMK AO2 SLP797 T11561178 56010 FZRANO
PAMH 171956Z AUTO 00000KT 10SM FEW120 M16/M18 A2966 RMK AO2 SLP800 T11611178 FZRANO
PAMH 171856Z AUTO 00000KT 10SM FEW120 M17/M19 A2967 RMK AO2 SLP804 T11671189 FZRANO
PAMH 171756Z AUTO 00000KT 10SM CLR M17/M18 A2968 RMK AO2 SLP808 T11671183 11161 21200 55007 FZRANO
PAMH 171656Z AUTO 00000KT 10SM CLR M16/M18 A2968 RMK AO2 SLP807 T11611178 FZRANO
PAMH 171556Z AUTO 00000KT 10SM FEW100 M17/M18 A2969 RMK AO2 SLP811 T11671183 FZRANO
PAMH 171456Z AUTO 00000KT 10SM BKN100 M16/M18 A2970 RMK AO2 SLP814 T11611183 56016 FZRANO
PAMH 171356Z AUTO 00000KT 10SM OVC095 M17/M19 A2972 RMK AO2 SLP820 T11721189 FZRANO
PAMH 171256Z AUTO 00000KT 10SM BKN110 M19/M21 A2973 RMK AO2 SLP824 T11941211 FZRANO
PAMH 171156Z AUTO 00000KT 10SM CLR M20/M22 A2975 RMK AO2 SLP831 T12001222 11150 21200 58018 FZRANO
PAMH 171056Z AUTO 00000KT 10SM CLR M18/M20 A2977 RMK AO2 SLP838 T11781200 FZRANO
PAMH 170956Z AUTO 28003KT 10SM CLR M18/M19 A2980 RMK AO2 SLP846 T11781194 FZRANO
PAMH 170856Z AUTO 00000KT 10SM CLR M17/M19 A2981 RMK AO2 SLP849 T11721189 411171239 56023 FZRANO
PAMH 170756Z AUTO 00000KT 10SM CLR M17/M19 A2982 RMK AO2 SLP855 T11721189 FZRANO
PAMH 170656Z AUTO 00000KT 10SM CLR M16/M18 A2984 RMK AO2 SLP861 T11611178 FZRANO
PAMH 170556Z AUTO 00000KT 10SM CLR M15/M17 A2987 RMK AO2 SLP872 T11501167 11117 21150 56020 FZRANO
PAMH 170456Z AUTO 00000KT 10SM OVC095 M13/M16 A2990 RMK AO2 SLP879 T11281156 FZRANO
PAMH 170356Z AUTO 00000KT 10SM OVC090 M12/M15 A2991 RMK AO2 SLP882 T11221150 FZRANO
PAMH 170256Z AUTO 21003KT 10SM OVC090 M12/M14 A2993 RMK AO2 SLP892 T11171144 56018 FZRANO
PAMH 170156Z AUTO 00000KT 10SM OVC095 M12/M14 A2995 RMK AO2 SLP897 T11171144 FZRANO
PAMH 170056Z AUTO 00000KT 10SM OVC090 M12/M15 A2997 RMK AO2 SLP903 T11221150 FZRANO
PAMH 162356Z AUTO 00000KT 10SM OVC095 M12/M15 A2999 RMK AO2 SLP910 T11171150 11117 21167 56019 FZRANO
PAMH 162256Z AUTO 00000KT 10SM OVC095 M13/M16 A3000 RMK AO2 SLP913 T11281156 FZRANO
PAMH 162156Z AUTO 19003KT 10SM FEW065 OVC090 M13/M16 A3003 RMK AO2 SLP924 T11331161 FZRANO
PAMH 162056Z AUTO 00000KT 10SM OVC075 M14/M17 A3005 RMK AO2 SLP929 T11441172 56010 FZRANO